EPZG/IEG METAR and TAF weather

Enter ICAO airport designator
Station Type Date Time Source
EPZG METAR 2020/10/29 17:00 UTC NOAA

EPZG 291700Z 23008KT CAVOK 07/05 Q1015


Station Type Date Time Source
EPZG Decoded METAR 2020/10/29 17:00 UTC NOAA

Zielona Gora, Poland (EPZG) 51-56N 015-32E 192M
Oct 29, 2020 - 01:00 PM EDT / 2020.10.29 1700 UTC
Wind: from the SW (230 degrees) at 9 MPH (8 KT):0
Visibility: greater than 7 mile(s):0
Temperature: 44 F (7 C)
Dew Point: 41 F (5 C)
Relative Humidity: 87%
Pressure (altimeter): 29.97 in. Hg (1015 hPa)
ob: EPZG 291700Z 23008KT CAVOK 07/05 Q1015
cycle: 17

Station Type Date Time Source
EPZG TAF 2012/06/28 21:49 UTC NOAA

TAF EPZG 282000Z 2821/2906 VRB02KT CAVOK
TEMPO 2823/2904 5000 BR PROB30 2900/2904 1500 BR BKN005

Example: see airport list